JST661 YAYE-YSSY
Flight info
| Callsign | JST661 |
|---|---|
| Flight time | N/A |
| Altitude | 35000 |
| Route | DCT AYE G222 PKS/N0345F190 W440 AKMIR W113 ODALE ODALE7 |
| Aircraft | A320/M-SDE3FGHIRWY/LB1 |
Departure
| Time | N/A |
|---|---|
| Airport | Ayers Rock Connellan Airport (YAYE) |
Arrival
| Time | 2026-05-04 05:16 |
|---|---|
| Airport | Sydney Kingsford Smith International Airport (YSSY) |
| Time | Latitude | Longitude | Altitude | Speed | Heading |
|---|---|---|---|---|---|
| 2026-05-04 03:24 | -28.26929 | 136.85915 | 35190 ft | 508 kts | 120° |
| 2026-05-04 03:24 | -28.30417 | 136.93004 | 35187 ft | 522 kts | 119° |
| 2026-05-04 03:25 | -28.33976 | 137.00289 | 35185 ft | 532 kts | 119° |
| 2026-05-04 03:25 | -28.37588 | 137.07651 | 35188 ft | 534 kts | 120° |
| 2026-05-04 03:26 | -28.41216 | 137.15024 | 35184 ft | 535 kts | 120° |
| 2026-05-04 03:26 | -28.44838 | 137.22401 | 35192 ft | 535 kts | 120° |
| 2026-05-04 03:27 | -28.48444 | 137.29792 | 35187 ft | 535 kts | 119° |
| 2026-05-04 03:27 | -28.52048 | 137.37188 | 35197 ft | 535 kts | 119° |
| 2026-05-04 03:28 | -28.55658 | 137.44587 | 35190 ft | 535 kts | 119° |
| 2026-05-04 03:28 | -28.59268 | 137.51993 | 35189 ft | 535 kts | 119° |
| 2026-05-04 03:29 | -28.62868 | 137.59414 | 35199 ft | 535 kts | 119° |
| 2026-05-04 03:29 | -28.66466 | 137.66840 | 35179 ft | 536 kts | 119° |
| 2026-05-04 03:30 | -28.70069 | 137.74274 | 35190 ft | 536 kts | 119° |
| 2026-05-04 03:30 | -28.73664 | 137.81723 | 35172 ft | 537 kts | 119° |
| 2026-05-04 03:31 | -28.77252 | 137.89167 | 35182 ft | 535 kts | 119° |
| 2026-05-04 03:31 | -28.80831 | 137.96602 | 35183 ft | 535 kts | 119° |
| 2026-05-04 03:32 | -28.84403 | 138.04045 | 35180 ft | 535 kts | 119° |
| 2026-05-04 03:32 | -28.87973 | 138.11497 | 35177 ft | 536 kts | 119° |
| 2026-05-04 03:33 | -28.91546 | 138.18955 | 35176 ft | 536 kts | 119° |
| 2026-05-04 03:33 | -28.95119 | 138.26423 | 35174 ft | 536 kts | 119° |
| 2026-05-04 03:34 | -28.98679 | 138.33907 | 35168 ft | 537 kts | 119° |
| 2026-05-04 03:34 | -29.02223 | 138.41349 | 35165 ft | 537 kts | 119° |
| 2026-05-04 03:35 | -29.05784 | 138.48847 | 35164 ft | 537 kts | 118° |
| 2026-05-04 03:35 | -29.09343 | 138.56359 | 35163 ft | 537 kts | 118° |
| 2026-05-04 03:36 | -29.12895 | 138.63876 | 35161 ft | 537 kts | 118° |
| 2026-05-04 03:36 | -29.16452 | 138.71401 | 35160 ft | 538 kts | 118° |
| 2026-05-04 03:37 | -29.20014 | 138.78939 | 35158 ft | 538 kts | 118° |
| 2026-05-04 03:37 | -29.23559 | 138.86490 | 35155 ft | 538 kts | 118° |
| 2026-05-04 03:38 | -29.27101 | 138.94054 | 35154 ft | 540 kts | 118° |
| 2026-05-04 03:38 | -29.30661 | 139.01627 | 35152 ft | 540 kts | 118° |
| 2026-05-04 03:39 | -29.34218 | 139.09198 | 35152 ft | 540 kts | 118° |
| 2026-05-04 03:39 | -29.37765 | 139.16806 | 35147 ft | 542 kts | 118° |
| 2026-05-04 03:40 | -29.41311 | 139.24426 | 35147 ft | 542 kts | 118° |
| 2026-05-04 03:40 | -29.44862 | 139.32058 | 35144 ft | 542 kts | 118° |
| 2026-05-04 03:41 | -29.48413 | 139.39689 | 35145 ft | 542 kts | 118° |
| 2026-05-04 03:41 | -29.51953 | 139.47322 | 35139 ft | 542 kts | 118° |
| 2026-05-04 03:42 | -29.55482 | 139.54972 | 35135 ft | 542 kts | 118° |
| 2026-05-04 03:42 | -29.59010 | 139.62621 | 35133 ft | 542 kts | 118° |
| 2026-05-04 03:43 | -29.62542 | 139.70273 | 35131 ft | 542 kts | 118° |
| 2026-05-04 03:43 | -29.66060 | 139.77935 | 35130 ft | 542 kts | 118° |
| 2026-05-04 03:44 | -29.69576 | 139.85604 | 35127 ft | 542 kts | 118° |
| 2026-05-04 03:44 | -29.73094 | 139.93272 | 35127 ft | 542 kts | 118° |
| 2026-05-04 03:45 | -29.76599 | 140.00944 | 35125 ft | 542 kts | 117° |
| 2026-05-04 03:45 | -29.80103 | 140.08621 | 35142 ft | 541 kts | 117° |
| 2026-05-04 03:46 | -29.83604 | 140.16287 | 35127 ft | 541 kts | 117° |
| 2026-05-04 03:46 | -29.87094 | 140.23969 | 35123 ft | 541 kts | 117° |
| 2026-05-04 03:47 | -29.90575 | 140.31669 | 35128 ft | 542 kts | 117° |
| 2026-05-04 03:47 | -29.94059 | 140.39371 | 35128 ft | 542 kts | 117° |
| 2026-05-04 03:48 | -29.97522 | 140.47026 | 35129 ft | 542 kts | 117° |
| 2026-05-04 03:48 | -30.00999 | 140.54748 | 35128 ft | 542 kts | 117° |
| 2026-05-04 03:49 | -30.04471 | 140.62476 | 35125 ft | 543 kts | 117° |
| 2026-05-04 03:49 | -30.07950 | 140.70212 | 35125 ft | 543 kts | 117° |
| 2026-05-04 03:50 | -30.11427 | 140.77959 | 35125 ft | 544 kts | 117° |
| 2026-05-04 03:50 | -30.14892 | 140.85721 | 35122 ft | 543 kts | 117° |
| 2026-05-04 03:51 | -30.18358 | 140.93483 | 35123 ft | 544 kts | 117° |
| 2026-05-04 03:51 | -30.21824 | 141.01265 | 35119 ft | 544 kts | 117° |
| 2026-05-04 03:52 | -30.25280 | 141.09053 | 35115 ft | 544 kts | 117° |
| 2026-05-04 03:52 | -30.28741 | 141.16839 | 35113 ft | 545 kts | 117° |
| 2026-05-04 03:53 | -30.32195 | 141.24647 | 35115 ft | 545 kts | 116° |
| 2026-05-04 03:53 | -30.35644 | 141.32462 | 35113 ft | 545 kts | 116° |
| 2026-05-04 03:54 | -30.39094 | 141.40288 | 35112 ft | 546 kts | 116° |
| 2026-05-04 03:54 | -30.42540 | 141.48126 | 35111 ft | 546 kts | 116° |
| 2026-05-04 03:55 | -30.45981 | 141.55966 | 35113 ft | 546 kts | 116° |
| 2026-05-04 03:55 | -30.49419 | 141.63817 | 35111 ft | 546 kts | 116° |
| 2026-05-04 03:56 | -30.52850 | 141.71676 | 35111 ft | 546 kts | 116° |
| 2026-05-04 03:56 | -30.56264 | 141.79481 | 35111 ft | 546 kts | 116° |
| 2026-05-04 03:57 | -30.59692 | 141.87354 | 35105 ft | 547 kts | 116° |
| 2026-05-04 03:57 | -30.63109 | 141.95245 | 35106 ft | 547 kts | 116° |
| 2026-05-04 03:58 | -30.68243 | 142.07082 | 35108 ft | 547 kts | 116° |
| 2026-05-04 03:58 | -30.71095 | 142.13648 | 35108 ft | 548 kts | 116° |
| 2026-05-04 03:59 | -30.74510 | 142.21557 | 35100 ft | 548 kts | 116° |
| 2026-05-04 03:59 | -30.77915 | 142.29478 | 35093 ft | 548 kts | 116° |
| 2026-05-04 04:00 | -30.81318 | 142.37414 | 35101 ft | 549 kts | 116° |
| 2026-05-04 04:00 | -30.84724 | 142.45360 | 35101 ft | 549 kts | 116° |
| 2026-05-04 04:01 | -30.88123 | 142.53310 | 35091 ft | 548 kts | 116° |
| 2026-05-04 04:01 | -30.91517 | 142.61253 | 35090 ft | 548 kts | 116° |
| 2026-05-04 04:02 | -30.94903 | 142.69207 | 35093 ft | 548 kts | 116° |
| 2026-05-04 04:02 | -30.98284 | 142.77165 | 35085 ft | 548 kts | 115° |
| 2026-05-04 04:03 | -31.01660 | 142.85136 | 35092 ft | 549 kts | 115° |
| 2026-05-04 04:03 | -31.05033 | 142.93120 | 35081 ft | 549 kts | 115° |
| 2026-05-04 04:04 | -31.08405 | 143.01107 | 35080 ft | 549 kts | 115° |
| 2026-05-04 04:04 | -31.11773 | 143.09109 | 35081 ft | 549 kts | 115° |
| 2026-05-04 04:05 | -31.15144 | 143.17111 | 35079 ft | 549 kts | 115° |
| 2026-05-04 04:05 | -31.18512 | 143.25120 | 35079 ft | 549 kts | 115° |
| 2026-05-04 04:06 | -31.21842 | 143.33088 | 35081 ft | 550 kts | 115° |
| 2026-05-04 04:06 | -31.25199 | 143.41117 | 35076 ft | 550 kts | 115° |
| 2026-05-04 04:07 | -31.28545 | 143.49153 | 35076 ft | 550 kts | 115° |
| 2026-05-04 04:07 | -31.31879 | 143.57197 | 35076 ft | 550 kts | 115° |
| 2026-05-04 04:08 | -31.35218 | 143.65247 | 35076 ft | 550 kts | 115° |
| 2026-05-04 04:08 | -31.38561 | 143.73298 | 35076 ft | 550 kts | 115° |
| 2026-05-04 04:09 | -31.41896 | 143.81365 | 35076 ft | 550 kts | 115° |
| 2026-05-04 04:09 | -31.45215 | 143.89439 | 35076 ft | 550 kts | 115° |
| 2026-05-04 04:10 | -31.48533 | 143.97519 | 35078 ft | 550 kts | 115° |
| 2026-05-04 04:10 | -31.51851 | 144.05606 | 35078 ft | 550 kts | 114° |
| 2026-05-04 04:11 | -31.55167 | 144.13693 | 35077 ft | 550 kts | 114° |
| 2026-05-04 04:11 | -31.58471 | 144.21789 | 35076 ft | 550 kts | 114° |
| 2026-05-04 04:12 | -31.61770 | 144.29902 | 35077 ft | 551 kts | 114° |
| 2026-05-04 04:12 | -31.65070 | 144.38016 | 35075 ft | 551 kts | 114° |
| 2026-05-04 04:13 | -31.68371 | 144.46138 | 35078 ft | 551 kts | 114° |
| 2026-05-04 04:13 | -31.71644 | 144.54217 | 35078 ft | 552 kts | 114° |
| 2026-05-04 04:14 | -31.74932 | 144.62364 | 35078 ft | 552 kts | 114° |
| 2026-05-04 04:14 | -31.78213 | 144.70526 | 35075 ft | 552 kts | 114° |
| 2026-05-04 04:15 | -31.81502 | 144.78687 | 35072 ft | 553 kts | 114° |
| 2026-05-04 04:15 | -31.84778 | 144.86868 | 35072 ft | 553 kts | 114° |
| 2026-05-04 04:16 | -31.88043 | 144.95056 | 35070 ft | 553 kts | 114° |
| 2026-05-04 04:16 | -31.91315 | 145.03248 | 35070 ft | 553 kts | 114° |
| 2026-05-04 04:17 | -31.94590 | 145.11431 | 35069 ft | 552 kts | 114° |
| 2026-05-04 04:17 | -31.97840 | 145.19619 | 35068 ft | 552 kts | 114° |
| 2026-05-04 04:18 | -32.01081 | 145.27811 | 35065 ft | 552 kts | 114° |
| 2026-05-04 04:18 | -32.04324 | 145.36006 | 35065 ft | 552 kts | 114° |
| 2026-05-04 04:19 | -32.07559 | 145.44216 | 35068 ft | 552 kts | 113° |
| 2026-05-04 04:19 | -32.10778 | 145.52431 | 35068 ft | 552 kts | 113° |
| 2026-05-04 04:20 | -32.13998 | 145.60641 | 35067 ft | 551 kts | 113° |
| 2026-05-04 04:20 | -32.17217 | 145.68857 | 35059 ft | 551 kts | 113° |
| 2026-05-04 04:21 | -32.20405 | 145.77025 | 35059 ft | 551 kts | 113° |
| 2026-05-04 04:21 | -32.23608 | 145.85255 | 35059 ft | 552 kts | 113° |
| 2026-05-04 04:22 | -32.26816 | 145.93502 | 35060 ft | 552 kts | 113° |
| 2026-05-04 04:22 | -32.30006 | 146.01750 | 35057 ft | 552 kts | 113° |
| 2026-05-04 04:23 | -32.33203 | 146.10069 | 35058 ft | 553 kts | 113° |
| 2026-05-04 04:23 | -32.36389 | 146.18342 | 35057 ft | 553 kts | 113° |
| 2026-05-04 04:24 | -32.39589 | 146.26625 | 35054 ft | 553 kts | 113° |
| 2026-05-04 04:24 | -32.42774 | 146.34914 | 35055 ft | 554 kts | 113° |
| 2026-05-04 04:25 | -32.45951 | 146.43240 | 35054 ft | 555 kts | 113° |
| 2026-05-04 04:25 | -32.49123 | 146.51571 | 35055 ft | 555 kts | 113° |
| 2026-05-04 04:26 | -32.52313 | 146.59912 | 35053 ft | 555 kts | 113° |
| 2026-05-04 04:26 | -32.55491 | 146.68250 | 35053 ft | 555 kts | 113° |
| 2026-05-04 04:27 | -32.58651 | 146.76608 | 35053 ft | 555 kts | 113° |
| 2026-05-04 04:27 | -32.61803 | 146.84968 | 35060 ft | 555 kts | 113° |
| 2026-05-04 04:28 | -32.64960 | 146.93334 | 35056 ft | 556 kts | 113° |
| 2026-05-04 04:28 | -32.68111 | 147.01701 | 35057 ft | 556 kts | 113° |
| 2026-05-04 04:29 | -32.71263 | 147.10089 | 35060 ft | 556 kts | 113° |
| 2026-05-04 04:29 | -32.74404 | 147.18477 | 35060 ft | 556 kts | 113° |
| 2026-05-04 04:30 | -32.77536 | 147.26879 | 35059 ft | 556 kts | 113° |
| 2026-05-04 04:30 | -32.80663 | 147.35292 | 35060 ft | 557 kts | 112° |
| 2026-05-04 04:31 | -32.83789 | 147.43712 | 35063 ft | 556 kts | 112° |
| 2026-05-04 04:31 | -32.86913 | 147.52123 | 35062 ft | 556 kts | 112° |
| 2026-05-04 04:32 | -32.90032 | 147.60546 | 35067 ft | 556 kts | 112° |
| 2026-05-04 04:32 | -32.93137 | 147.68976 | 35069 ft | 556 kts | 112° |
| 2026-05-04 04:33 | -32.96242 | 147.77406 | 35066 ft | 556 kts | 112° |
| 2026-05-04 04:33 | -32.99334 | 147.85830 | 35058 ft | 554 kts | 112° |
| 2026-05-04 04:34 | -33.02408 | 147.94240 | 35053 ft | 553 kts | 112° |
| 2026-05-04 04:34 | -33.05465 | 148.02630 | 35065 ft | 552 kts | 112° |
| 2026-05-04 04:35 | -33.08503 | 148.10968 | 35062 ft | 552 kts | 112° |
| 2026-05-04 04:35 | -33.11555 | 148.19364 | 35062 ft | 552 kts | 112° |
| 2026-05-04 04:36 | -33.15181 | 148.27417 | 35059 ft | 551 kts | 123° |
| 2026-05-04 04:36 | -33.17271 | 148.31326 | 34943 ft | 551 kts | 123° |
| 2026-05-04 04:36 | -33.19335 | 148.35151 | 34711 ft | 543 kts | 123° |
| 2026-05-04 04:37 | -33.25314 | 148.46205 | 34011 ft | 519 kts | 123° |
| 2026-05-04 04:37 | -33.27275 | 148.49855 | 33734 ft | 511 kts | 123° |
| 2026-05-04 04:38 | -33.29181 | 148.53415 | 33465 ft | 507 kts | 122° |
| 2026-05-04 04:38 | -33.31092 | 148.56992 | 33205 ft | 514 kts | 122° |
| 2026-05-04 04:38 | -33.33017 | 148.60599 | 32941 ft | 514 kts | 122° |
| 2026-05-04 04:38 | -33.34932 | 148.64193 | 32685 ft | 511 kts | 122° |
| 2026-05-04 04:39 | -33.36840 | 148.67773 | 32429 ft | 508 kts | 122° |
| 2026-05-04 04:39 | -33.38732 | 148.71323 | 32125 ft | 505 kts | 122° |
| 2026-05-04 04:39 | -33.40588 | 148.74806 | 31711 ft | 501 kts | 122° |
| 2026-05-04 04:39 | -33.42473 | 148.78345 | 31275 ft | 496 kts | 122° |
| 2026-05-04 04:40 | -33.44291 | 148.81762 | 30866 ft | 491 kts | 122° |
| 2026-05-04 04:40 | -33.46138 | 148.85243 | 30455 ft | 486 kts | 121° |
| 2026-05-04 04:40 | -33.47937 | 148.88641 | 30045 ft | 481 kts | 121° |
| 2026-05-04 04:40 | -33.49721 | 148.92012 | 29569 ft | 477 kts | 121° |
| 2026-05-04 04:41 | -33.51467 | 148.95309 | 29110 ft | 473 kts | 121° |
| 2026-05-04 04:41 | -33.53221 | 148.98619 | 28649 ft | 469 kts | 121° |
| 2026-05-04 04:41 | -33.54959 | 149.01907 | 28212 ft | 465 kts | 121° |
| 2026-05-04 04:41 | -33.56682 | 149.05171 | 27760 ft | 462 kts | 121° |
| 2026-05-04 04:42 | -33.58394 | 149.08414 | 27323 ft | 458 kts | 121° |
| 2026-05-04 04:42 | -33.60092 | 149.11630 | 26888 ft | 455 kts | 121° |
| 2026-05-04 04:42 | -33.61776 | 149.14824 | 26463 ft | 452 kts | 121° |
| 2026-05-04 04:42 | -33.63451 | 149.18003 | 26048 ft | 451 kts | 121° |
| 2026-05-04 04:43 | -33.65125 | 149.21183 | 25637 ft | 449 kts | 121° |
| 2026-05-04 04:43 | -33.66786 | 149.24343 | 25233 ft | 446 kts | 121° |
| 2026-05-04 04:43 | -33.68433 | 149.27487 | 24826 ft | 444 kts | 121° |
| 2026-05-04 04:43 | -33.70070 | 149.30615 | 24425 ft | 441 kts | 121° |
| 2026-05-04 04:44 | -33.71700 | 149.33731 | 24038 ft | 439 kts | 121° |
| 2026-05-04 04:44 | -33.73320 | 149.36827 | 23646 ft | 437 kts | 121° |
| 2026-05-04 04:44 | -33.74390 | 149.38871 | 23353 ft | 435 kts | 121° |
| 2026-05-04 04:44 | -33.76536 | 149.42972 | 22745 ft | 432 kts | 121° |
| 2026-05-04 04:45 | -33.77592 | 149.44992 | 22455 ft | 430 kts | 121° |
| 2026-05-04 04:45 | -33.79174 | 149.48025 | 22012 ft | 427 kts | 121° |
| 2026-05-04 04:45 | -33.80745 | 149.51039 | 21577 ft | 424 kts | 121° |
| 2026-05-04 04:47 | -33.89916 | 149.68676 | 19092 ft | 406 kts | 121° |
| 2026-05-04 04:47 | -33.91405 | 149.71548 | 18687 ft | 403 kts | 121° |
| 2026-05-04 04:47 | -33.92880 | 149.74401 | 18296 ft | 400 kts | 121° |
| 2026-05-04 04:47 | -33.94344 | 149.77233 | 17845 ft | 397 kts | 121° |
| 2026-05-04 04:48 | -33.95798 | 149.80045 | 17407 ft | 394 kts | 121° |
| 2026-05-04 04:49 | -34.01517 | 149.91107 | 15639 ft | 384 kts | 120° |
| 2026-05-04 04:49 | -34.02930 | 149.93845 | 15139 ft | 385 kts | 120° |
| 2026-05-04 04:49 | -34.04339 | 149.96586 | 14629 ft | 384 kts | 120° |
| 2026-05-04 04:49 | -34.05739 | 149.99316 | 14128 ft | 381 kts | 120° |
| 2026-05-04 04:50 | -34.07131 | 150.02029 | 13621 ft | 379 kts | 120° |
| 2026-05-04 04:50 | -34.08515 | 150.04727 | 13143 ft | 375 kts | 120° |
| 2026-05-04 04:50 | -34.09870 | 150.07362 | 12967 ft | 363 kts | 120° |
| 2026-05-04 04:50 | -34.11188 | 150.09914 | 12987 ft | 357 kts | 120° |
| 2026-05-04 04:51 | -34.12495 | 150.12460 | 13006 ft | 358 kts | 120° |
| 2026-05-04 04:51 | -34.13802 | 150.15020 | 13009 ft | 357 kts | 120° |
| 2026-05-04 04:51 | -34.15106 | 150.17576 | 13001 ft | 358 kts | 120° |
| 2026-05-04 04:51 | -34.16410 | 150.20134 | 13008 ft | 358 kts | 120° |
| 2026-05-04 04:52 | -34.17719 | 150.22695 | 13001 ft | 359 kts | 120° |
| 2026-05-04 04:52 | -34.19030 | 150.25252 | 12991 ft | 356 kts | 120° |
| 2026-05-04 04:52 | -34.20349 | 150.27835 | 13003 ft | 366 kts | 120° |
| 2026-05-04 04:52 | -34.21685 | 150.30463 | 13003 ft | 368 kts | 120° |
| 2026-05-04 04:53 | -34.23025 | 150.33096 | 13003 ft | 368 kts | 120° |
| 2026-05-04 04:53 | -34.24370 | 150.35735 | 12997 ft | 369 kts | 120° |
| 2026-05-04 04:53 | -34.25671 | 150.38397 | 13000 ft | 367 kts | 113° |
| 2026-05-04 04:53 | -34.26466 | 150.41299 | 13002 ft | 361 kts | 96° |
| 2026-05-04 04:54 | -34.26597 | 150.44292 | 13004 ft | 354 kts | 79° |
| 2026-05-04 04:54 | -34.26098 | 150.47165 | 12992 ft | 345 kts | 64° |
| 2026-05-04 04:54 | -34.25075 | 150.49742 | 13001 ft | 338 kts | 56° |
| 2026-05-04 04:54 | -34.23944 | 150.52238 | 13003 ft | 339 kts | 55° |
| 2026-05-04 04:55 | -34.22821 | 150.54741 | 13003 ft | 339 kts | 56° |
| 2026-05-04 04:55 | -34.21703 | 150.57253 | 13002 ft | 339 kts | 56° |
| 2026-05-04 04:55 | -34.20586 | 150.59761 | 12934 ft | 340 kts | 56° |
| 2026-05-04 04:55 | -34.19446 | 150.62297 | 12237 ft | 346 kts | 56° |
| 2026-05-04 04:56 | -34.18317 | 150.64811 | 12073 ft | 335 kts | 56° |
| 2026-05-04 04:56 | -34.17232 | 150.67242 | 11939 ft | 323 kts | 56° |
| 2026-05-04 04:56 | -34.16166 | 150.69621 | 11550 ft | 321 kts | 55° |
| 2026-05-04 04:56 | -34.15100 | 150.71985 | 11183 ft | 320 kts | 55° |
| 2026-05-04 04:57 | -34.14039 | 150.74338 | 10825 ft | 319 kts | 55° |
| 2026-05-04 04:57 | -34.12981 | 150.76683 | 10446 ft | 317 kts | 56° |
| 2026-05-04 04:57 | -34.11927 | 150.79021 | 10097 ft | 316 kts | 56° |
| 2026-05-04 04:57 | -34.10878 | 150.81346 | 9731 ft | 315 kts | 56° |
| 2026-05-04 04:58 | -34.09834 | 150.83662 | 9342 ft | 314 kts | 56° |
| 2026-05-04 04:58 | -34.08800 | 150.85968 | 8957 ft | 312 kts | 56° |
| 2026-05-04 04:58 | -34.07768 | 150.88271 | 8577 ft | 311 kts | 56° |
| 2026-05-04 04:58 | -34.06740 | 150.90559 | 8202 ft | 310 kts | 56° |
| 2026-05-04 04:59 | -34.05711 | 150.92839 | 7829 ft | 310 kts | 56° |
| 2026-05-04 04:59 | -34.04681 | 150.95114 | 7465 ft | 308 kts | 56° |
| 2026-05-04 04:59 | -34.03710 | 150.97414 | 7104 ft | 311 kts | 65° |
| 2026-05-04 04:59 | -34.03408 | 151.00011 | 6748 ft | 320 kts | 92° |
| 2026-05-04 05:00 | -34.04088 | 151.02561 | 6389 ft | 324 kts | 121° |
| 2026-05-04 05:00 | -34.05535 | 151.04630 | 6013 ft | 322 kts | 133° |
| 2026-05-04 05:00 | -34.08927 | 151.07760 | 5940 ft | 295 kts | 159° |
| 2026-05-04 05:01 | -34.10834 | 151.08461 | 5953 ft | 280 kts | 171° |
| 2026-05-04 05:01 | -34.12702 | 151.08944 | 5943 ft | 270 kts | 171° |
| 2026-05-04 05:01 | -34.14529 | 151.09419 | 5945 ft | 266 kts | 171° |
| 2026-05-04 05:01 | -34.16287 | 151.09877 | 5939 ft | 251 kts | 171° |
| 2026-05-04 05:02 | -34.17960 | 151.10312 | 5939 ft | 243 kts | 171° |
| 2026-05-04 05:02 | -34.19588 | 151.10760 | 5960 ft | 238 kts | 165° |
| 2026-05-04 05:02 | -34.20913 | 151.11897 | 5936 ft | 235 kts | 121° |
| 2026-05-04 05:02 | -34.21295 | 151.13666 | 5946 ft | 212 kts | 75° |
| 2026-05-04 05:03 | -34.20804 | 151.15260 | 5934 ft | 196 kts | 55° |
| 2026-05-04 05:03 | -34.20191 | 151.16684 | 5938 ft | 192 kts | 53° |
| 2026-05-04 05:04 | -34.18315 | 151.20918 | 5958 ft | 188 kts | 48° |
| 2026-05-04 05:04 | -34.17475 | 151.22010 | 5942 ft | 170 kts | 28° |
| 2026-05-04 05:04 | -34.16465 | 151.22660 | 5944 ft | 161 kts | 11° |
| 2026-05-04 05:06 | -34.16170 | 151.32020 | 4937 ft | 197 kts | 103° |
| 2026-05-04 05:06 | -34.16594 | 151.33589 | 4761 ft | 196 kts | 103° |
| 2026-05-04 05:06 | -34.17032 | 151.35144 | 4393 ft | 194 kts | 103° |
| 2026-05-04 05:07 | -34.17670 | 151.36573 | 3936 ft | 198 kts | 132° |
| 2026-05-04 05:07 | -34.18889 | 151.37301 | 3430 ft | 198 kts | 178° |
| 2026-05-04 05:07 | -34.20153 | 151.36968 | 2979 ft | 177 kts | 225° |
| 2026-05-04 05:09 | -34.19079 | 151.27975 | 2940 ft | 145 kts | 300° |
| 2026-05-04 05:09 | -34.18628 | 151.26882 | 2947 ft | 145 kts | 300° |
| 2026-05-04 05:10 | -34.18177 | 151.25794 | 2947 ft | 145 kts | 300° |
| 2026-05-04 05:10 | -34.17726 | 151.24705 | 2943 ft | 145 kts | 301° |
| 2026-05-04 05:10 | -34.17104 | 151.23769 | 2937 ft | 144 kts | 320° |
| 2026-05-04 05:10 | -34.16206 | 151.23215 | 2946 ft | 148 kts | 342° |
| 2026-05-04 05:11 | -34.15194 | 151.22949 | 2950 ft | 149 kts | 344° |
| 2026-05-04 05:11 | -34.14188 | 151.22687 | 2950 ft | 147 kts | 344° |
| 2026-05-04 05:11 | -34.13189 | 151.22427 | 2948 ft | 146 kts | 343° |
| 2026-05-04 05:11 | -34.12197 | 151.22169 | 2755 ft | 143 kts | 345° |
| 2026-05-04 05:12 | -34.11259 | 151.21925 | 2484 ft | 134 kts | 345° |
| 2026-05-04 05:12 | -34.10357 | 151.21689 | 2210 ft | 135 kts | 345° |
| 2026-05-04 05:12 | -34.09426 | 151.21446 | 1938 ft | 137 kts | 347° |
| 2026-05-04 05:12 | -34.08488 | 151.21202 | 1675 ft | 137 kts | 347° |
| 2026-05-04 05:13 | -34.07554 | 151.20959 | 1684 ft | 138 kts | 346° |
| 2026-05-04 05:13 | -34.06610 | 151.20713 | 1695 ft | 139 kts | 347° |
| 2026-05-04 05:13 | -34.05675 | 151.20469 | 1695 ft | 136 kts | 346° |
| 2026-05-04 05:13 | -34.04751 | 151.20229 | 1615 ft | 137 kts | 347° |
| 2026-05-04 05:14 | -34.03808 | 151.19983 | 1475 ft | 139 kts | 349° |
| 2026-05-04 05:14 | -34.02852 | 151.19735 | 1314 ft | 142 kts | 347° |
| 2026-05-04 05:14 | -34.01884 | 151.19483 | 1143 ft | 141 kts | 348° |
| 2026-05-04 05:14 | -34.00918 | 151.19236 | 967 ft | 143 kts | 349° |
| 2026-05-04 05:15 | -33.99947 | 151.18986 | 790 ft | 143 kts | 351° |
| 2026-05-04 05:15 | -33.98957 | 151.18700 | 584 ft | 149 kts | 349° |
| 2026-05-04 05:15 | -33.97943 | 151.18437 | 398 ft | 148 kts | 351° |
| 2026-05-04 05:15 | -33.96965 | 151.18195 | 182 ft | 139 kts | 350° |
| 2026-05-04 05:16 | -33.96035 | 151.17965 | 43 ft | 131 kts | 349° |
| 2026-05-04 05:16 | -33.95281 | 151.17769 | 23 ft | 76 kts | 347° |
| 2026-05-04 05:16 | -33.94968 | 151.17687 | 21 ft | 38 kts | 348° |
| 2026-05-04 05:16 | -33.94738 | 151.17644 | 25 ft | 26 kts | 359° |
| 2026-05-04 05:17 | -33.94588 | 151.17665 | 23 ft | 14 kts | 13° |
| 2026-05-04 05:17 | -33.94511 | 151.17688 | 24 ft | 0 kts | 16° |
| 2026-05-04 05:17 | -33.94505 | 151.17690 | 25 ft | 1 kts | 16° |
| 2026-05-04 05:17 | -33.94493 | 151.17694 | 24 ft | 3 kts | 16° |
| 2026-05-04 05:18 | -33.94447 | 151.17710 | 25 ft | 11 kts | 16° |
| 2026-05-04 05:18 | -33.94345 | 151.17733 | 23 ft | 18 kts | 358° |
| 2026-05-04 05:18 | -33.94212 | 151.17698 | 21 ft | 21 kts | 346° |
| 2026-05-04 05:18 | -33.94070 | 151.17654 | 23 ft | 22 kts | 345° |
| 2026-05-04 05:19 | -33.93928 | 151.17617 | 19 ft | 16 kts | 353° |
| 2026-05-04 05:19 | -33.93859 | 151.17711 | 19 ft | 17 kts | 70° |
| 2026-05-04 05:19 | -33.93776 | 151.17786 | 24 ft | 15 kts | 10° |
| 2026-05-04 05:19 | -33.93685 | 151.17804 | 30 ft | 14 kts | 8° |
| 2026-05-04 05:20 | -33.93582 | 151.17825 | 31 ft | 16 kts | 11° |
| 2026-05-04 05:20 | -33.93525 | 151.17838 | 31 ft | 4 kts | 11° |
| 2026-05-04 05:20 | -33.93516 | 151.17866 | 31 ft | 5 kts | 100° |
| 2026-05-04 05:20 | -33.93523 | 151.17912 | 31 ft | 2 kts | 99° |